createdAt,value
2019-02-17T00:00:46.899Z,5.15
2019-02-17T00:04:53.779Z,5.02
2019-02-17T00:09:00.683Z,5.07
2019-02-17T00:13:09.139Z,5.05
2019-02-17T00:17:15.923Z,4.92
2019-02-17T00:21:22.737Z,4.71
2019-02-17T00:25:29.554Z,4.66
2019-02-17T00:29:36.383Z,4.48
2019-02-17T00:33:43.193Z,4.54
2019-02-17T00:37:49.989Z,4.39
2019-02-17T00:41:57.431Z,4.34
2019-02-17T00:46:04.341Z,4.25
2019-02-17T00:50:11.197Z,4.23
2019-02-17T00:54:18.146Z,4.25
2019-02-17T00:58:24.938Z,4.13
2019-02-17T01:02:31.755Z,4.17
2019-02-17T01:06:38.732Z,4.13
2019-02-17T01:10:45.784Z,4.16
2019-02-17T01:14:52.600Z,4.09
2019-02-17T01:18:59.436Z,4.01
2019-02-17T01:23:09.350Z,3.85
2019-02-17T01:27:16.305Z,3.74
2019-02-17T01:31:23.259Z,3.63
2019-02-17T01:35:30.809Z,3.66
2019-02-17T01:39:37.810Z,3.66
2019-02-17T01:43:44.667Z,3.61
2019-02-17T01:47:51.628Z,3.65
2019-02-17T01:51:58.645Z,3.69
2019-02-17T01:56:05.571Z,3.60
2019-02-17T02:00:14.116Z,3.55
2019-02-17T02:04:21.365Z,3.57
2019-02-17T02:08:28.257Z,3.59
2019-02-17T02:12:35.111Z,3.57
2019-02-17T02:16:41.997Z,3.59
2019-02-17T02:20:48.807Z,3.56
2019-02-17T02:24:55.945Z,3.48
2019-02-17T02:29:02.908Z,3.37
2019-02-17T02:33:12.779Z,3.27
2019-02-17T02:37:19.725Z,3.29
2019-02-17T02:41:34.197Z,3.21
2019-02-17T02:45:35.136Z,3.25
2019-02-17T02:49:41.957Z,3.34
2019-02-17T02:53:48.778Z,3.33
2019-02-17T02:57:55.751Z,3.34
2019-02-17T03:02:02.755Z,3.27
2019-02-17T03:06:29.224Z,3.13
2019-02-17T03:10:36.090Z,3.18
2019-02-17T03:14:42.911Z,3.09
2019-02-17T03:18:49.737Z,3.08
2019-02-17T03:22:56.551Z,3.04
2019-02-17T03:27:03.396Z,3.15
2019-02-17T03:31:10.211Z,3.14
2019-02-17T03:35:17.115Z,3.19
2019-02-17T03:39:23.993Z,3.20
2019-02-17T03:43:30.843Z,3.20
2019-02-17T03:47:37.712Z,3.16
2019-02-17T03:51:45.661Z,3.12
2019-02-17T03:55:52.542Z,3.15
2019-02-17T03:59:59.358Z,3.14
2019-02-17T04:04:06.216Z,3.09
2019-02-17T04:08:13.067Z,2.87
2019-02-17T04:12:19.860Z,2.84
2019-02-17T04:16:26.688Z,2.81
2019-02-17T04:20:33.498Z,2.83
2019-02-17T04:24:40.348Z,2.88
2019-02-17T04:28:47.165Z,2.87
2019-02-17T04:32:54.097Z,2.93
2019-02-17T04:37:01.308Z,2.89
2019-02-17T04:41:08.175Z,2.85
2019-02-17T04:45:15.046Z,2.75
2019-02-17T04:49:21.892Z,2.75
2019-02-17T04:53:28.898Z,2.61
2019-02-17T04:57:35.735Z,2.46
2019-02-17T05:01:42.846Z,2.40
2019-02-17T05:05:49.767Z,2.30
2019-02-17T05:09:57.626Z,2.20
2019-02-17T05:14:04.501Z,2.12
2019-02-17T05:18:11.398Z,2.19
2019-02-17T05:22:18.387Z,2.10
2019-02-17T05:26:25.260Z,2.06
2019-02-17T05:30:32.149Z,2.15
2019-02-17T05:34:38.989Z,2.11
2019-02-17T05:38:45.945Z,2.12
2019-02-17T05:42:52.908Z,2.11
2019-02-17T05:46:59.908Z,2.17
2019-02-17T05:51:07.843Z,2.19
2019-02-17T05:55:14.748Z,2.14
2019-02-17T05:59:21.648Z,2.13
2019-02-17T06:03:28.641Z,2.06
2019-02-17T06:07:35.703Z,2.17
2019-02-17T06:11:42.594Z,2.17
2019-02-17T06:15:49.580Z,2.14
2019-02-17T06:19:56.368Z,2.13
2019-02-17T06:24:03.317Z,2.11
2019-02-17T06:28:10.200Z,2.07
2019-02-17T06:32:17.086Z,2.01
2019-02-17T06:36:24.015Z,1.97
2019-02-17T06:40:30.921Z,1.90
2019-02-17T06:44:37.887Z,1.85
2019-02-17T06:48:44.784Z,1.72
2019-02-17T06:52:51.624Z,1.73
2019-02-17T06:57:17.248Z,1.54
2019-02-17T07:01:25.011Z,1.51
2019-02-17T07:05:57.205Z,1.41
2019-02-17T07:10:04.245Z,1.26
2019-02-17T07:14:11.170Z,1.23
2019-02-17T07:18:18.068Z,1.19
2019-02-17T07:22:24.938Z,1.21
2019-02-17T07:26:31.784Z,1.10
2019-02-17T07:30:38.589Z,1.31
2019-02-17T07:34:45.466Z,1.18
2019-02-17T07:38:52.443Z,1.19
2019-02-17T07:42:59.505Z,1.28
2019-02-17T07:47:06.419Z,1.39
2019-02-17T07:51:13.376Z,1.22
2019-02-17T07:55:20.315Z,1.38
2019-02-17T07:59:27.736Z,1.33
2019-02-17T08:03:34.688Z,1.63
2019-02-17T08:07:41.615Z,1.85
2019-02-17T08:11:56.262Z,1.77
2019-02-17T08:16:03.921Z,2.17
2019-02-17T08:20:11.129Z,2.18
2019-02-17T08:24:17.970Z,2.42
2019-02-17T08:28:24.820Z,2.62
2019-02-17T08:32:31.771Z,2.97
2019-02-17T08:36:38.883Z,3.41
2019-02-17T08:40:45.830Z,3.95
2019-02-17T08:44:52.695Z,4.48
2019-02-17T08:48:59.587Z,4.81
2019-02-17T08:53:06.460Z,5.35
2019-02-17T08:57:13.451Z,5.43
2019-02-17T09:01:20.554Z,5.28
2019-02-17T09:05:27.576Z,6.14
2019-02-17T09:09:34.507Z,6.12
2019-02-17T09:13:42.641Z,6.15
2019-02-17T09:17:50.886Z,5.94
2019-02-17T09:21:58.859Z,7.14
2019-02-17T09:26:06.661Z,6.38
2019-02-17T09:30:16.886Z,7.16
2019-02-17T09:34:25.430Z,7.38
2019-02-17T09:38:32.509Z,7.61
2019-02-17T09:42:39.817Z,7.42
2019-02-17T09:46:46.849Z,7.73
2019-02-17T09:50:53.848Z,8.13
2019-02-17T09:55:00.924Z,7.79
2019-02-17T09:59:07.793Z,8.19
2019-02-17T10:03:26.651Z,8.06
2019-02-17T10:07:33.963Z,7.96
2019-02-17T10:11:40.951Z,8.39
2019-02-17T10:15:51.620Z,8.24
2019-02-17T10:19:59.318Z,8.55
2019-02-17T10:24:06.345Z,8.85
2019-02-17T10:28:14.024Z,9.16
2019-02-17T10:32:20.983Z,8.94
2019-02-17T10:36:27.928Z,9.52
2019-02-17T10:40:37.161Z,9.82
2019-02-17T10:44:44.702Z,9.65
2019-02-17T10:48:51.665Z,10.36
2019-02-17T10:52:58.749Z,10.74
2019-02-17T10:57:06.733Z,10.66
2019-02-17T11:01:13.848Z,10.61
2019-02-17T11:05:22.880Z,11.28
2019-02-17T11:09:29.807Z,11.38
2019-02-17T11:13:36.700Z,11.31
2019-02-17T11:17:43.739Z,11.75
2019-02-17T11:21:50.638Z,11.98
2019-02-17T11:25:59.040Z,12.18
2019-02-17T11:30:08.326Z,11.87
2019-02-17T11:34:15.294Z,12.19
2019-02-17T11:38:22.361Z,12.26
2019-02-17T11:42:29.379Z,12.54
2019-02-17T11:46:36.653Z,12.90
2019-02-17T11:50:43.815Z,13.15
2019-02-17T11:54:52.365Z,13.34
2019-02-17T11:58:59.541Z,13.38
2019-02-17T12:03:08.325Z,13.30
2019-02-17T12:07:15.202Z,14.28
2019-02-17T12:11:24.469Z,14.86
2019-02-17T12:15:31.358Z,14.60
2019-02-17T12:19:38.237Z,15.38
2019-02-17T12:23:48.814Z,15.71
2019-02-17T12:28:09.305Z,16.36
2019-02-17T12:32:31.318Z,16.85
2019-02-17T12:36:38.374Z,16.86
2019-02-17T12:40:45.409Z,16.96
2019-02-17T12:44:52.490Z,17.60
2019-02-17T12:48:59.385Z,17.92
2019-02-17T12:53:06.305Z,18.56
2019-02-17T12:57:13.253Z,17.77
2019-02-17T13:01:20.220Z,17.87
2019-02-17T13:05:27.150Z,18.51
2019-02-17T13:09:34.151Z,18.43
2019-02-17T13:13:41.121Z,18.78
2019-02-17T13:17:48.056Z,19.01
2019-02-17T13:21:54.931Z,19.31
2019-02-17T13:26:01.815Z,19.54
2019-02-17T13:30:16.812Z,19.45
2019-02-17T13:34:23.954Z,18.29
2019-02-17T13:38:30.984Z,19.19
2019-02-17T13:42:37.857Z,18.72
2019-02-17T13:46:44.900Z,18.40
2019-02-17T13:50:51.917Z,17.63
2019-02-17T13:54:58.921Z,17.80
2019-02-17T13:59:05.894Z,17.85
2019-02-17T14:03:12.788Z,17.17
2019-02-17T14:07:19.840Z,17.22
2019-02-17T14:11:26.866Z,16.35
2019-02-17T14:15:34.028Z,16.67
2019-02-17T14:19:40.918Z,16.58
2019-02-17T14:23:48.009Z,16.30
2019-02-17T14:27:55.882Z,16.13
2019-02-17T14:32:03.358Z,15.98
2019-02-17T14:36:10.535Z,15.95
2019-02-17T14:40:17.555Z,15.71
2019-02-17T14:44:24.452Z,15.71
2019-02-17T14:48:32.806Z,15.59
2019-02-17T14:52:40.117Z,15.50
2019-02-17T14:56:47.071Z,15.48
2019-02-17T15:00:54.056Z,15.44
2019-02-17T15:05:01.207Z,15.28
2019-02-17T15:09:09.900Z,15.03
2019-02-17T15:13:24.385Z,15.09
2019-02-17T15:17:27.300Z,14.98
2019-02-17T15:21:34.550Z,14.83
2019-02-17T15:25:41.885Z,14.97
2019-02-17T15:29:49.192Z,14.94
2019-02-17T15:33:57.514Z,14.72
2019-02-17T15:38:04.911Z,14.68
2019-02-17T15:42:14.610Z,14.44
2019-02-17T15:46:21.770Z,14.15
2019-02-17T15:50:29.053Z,13.94
2019-02-17T15:54:36.312Z,13.84
2019-02-17T15:58:44.960Z,13.88
2019-02-17T16:02:52.336Z,13.76
2019-02-17T16:06:59.578Z,13.46
2019-02-17T16:11:06.689Z,13.56
2019-02-17T16:15:15.671Z,13.36
2019-02-17T16:19:22.839Z,13.21
2019-02-17T16:23:29.778Z,13.08
2019-02-17T16:27:38.299Z,12.91
2019-02-17T16:31:45.391Z,12.77
2019-02-17T16:35:55.345Z,12.64
2019-02-17T16:40:02.426Z,12.60
2019-02-17T16:44:16.211Z,12.37
2019-02-17T16:48:25.931Z,12.22
2019-02-17T16:52:33.004Z,12.12
2019-02-17T16:56:42.057Z,11.93
2019-02-17T17:00:49.013Z,11.82
2019-02-17T17:04:57.402Z,11.70
2019-02-17T17:09:05.442Z,11.57
2019-02-17T17:13:13.966Z,11.48
2019-02-17T17:17:20.846Z,11.36
2019-02-17T17:21:27.782Z,11.18
2019-02-17T17:25:44.966Z,11.03
2019-02-17T17:29:50.840Z,10.92
2019-02-17T17:34:02.151Z,10.82
2019-02-17T17:38:12.440Z,10.72
2019-02-17T17:42:21.661Z,10.64
2019-02-17T17:46:28.831Z,10.59
2019-02-17T17:50:38.373Z,10.52
2019-02-17T17:54:46.200Z,10.45
2019-02-17T17:59:03.615Z,10.41
2019-02-17T18:03:10.875Z,10.37
2019-02-17T18:07:17.875Z,10.33
2019-02-17T18:11:24.763Z,10.24
2019-02-17T18:15:31.676Z,10.23
2019-02-17T18:19:38.754Z,10.25
2019-02-17T18:23:46.679Z,10.17
2019-02-17T18:27:53.663Z,10.10
2019-02-17T18:32:00.609Z,10.00
2019-02-17T18:36:10.525Z,9.89
2019-02-17T18:40:17.695Z,9.84
2019-02-17T18:44:24.849Z,9.74
2019-02-17T18:48:35.948Z,9.65
2019-02-17T18:52:42.768Z,9.50
2019-02-17T18:56:49.720Z,9.42
2019-02-17T19:00:57.238Z,9.44
2019-02-17T19:05:04.313Z,9.33
2019-02-17T19:09:11.565Z,9.27
2019-02-17T19:13:18.714Z,9.22
2019-02-17T19:17:25.700Z,9.34
2019-02-17T19:21:33.122Z,9.27
2019-02-17T19:25:40.259Z,9.17
2019-02-17T19:29:47.298Z,9.15
2019-02-17T19:33:54.216Z,9.08
2019-02-17T19:38:01.104Z,9.08
2019-02-17T19:42:07.995Z,9.06
2019-02-17T19:46:14.942Z,9.01
2019-02-17T19:50:22.186Z,9.02
2019-02-17T19:54:29.158Z,8.96
2019-02-17T19:58:36.123Z,8.91
2019-02-17T20:03:06.468Z,8.87
2019-02-17T20:07:13.525Z,8.74
2019-02-17T20:11:20.446Z,8.67
2019-02-17T20:15:31.159Z,8.58
2019-02-17T20:19:43.394Z,8.42
2019-02-17T20:23:52.984Z,8.36
2019-02-17T20:28:01.235Z,8.14
2019-02-17T20:32:09.487Z,8.10
2019-02-17T20:36:16.625Z,8.09
2019-02-17T20:40:23.647Z,7.98
2019-02-17T20:44:32.259Z,7.89
2019-02-17T20:48:39.597Z,7.79
2019-02-17T20:52:46.567Z,7.78
2019-02-17T20:56:53.673Z,7.68
2019-02-17T21:01:00.551Z,7.71
2019-02-17T21:05:07.947Z,7.70
2019-02-17T21:09:15.540Z,7.63
2019-02-17T21:13:22.659Z,7.61
2019-02-17T21:17:29.629Z,7.62
2019-02-17T21:21:36.494Z,7.59
2019-02-17T21:25:43.316Z,7.54
2019-02-17T21:29:50.263Z,7.52
2019-02-17T21:33:57.220Z,7.53
2019-02-17T21:38:04.180Z,7.49
2019-02-17T21:42:11.174Z,7.40
2019-02-17T21:46:18.111Z,7.39
2019-02-17T21:50:25.100Z,7.37
2019-02-17T21:54:32.080Z,7.34
2019-02-17T21:58:40.749Z,7.30
2019-02-17T22:02:53.353Z,7.28
2019-02-17T22:07:01.973Z,7.23
2019-02-17T22:11:16.619Z,7.17
2019-02-17T22:15:29.676Z,7.12
2019-02-17T22:19:36.956Z,7.11
2019-02-17T22:23:44.187Z,7.07
2019-02-17T22:27:51.176Z,7.00
2019-02-17T22:31:58.209Z,6.96
2019-02-17T22:36:05.159Z,6.88
2019-02-17T22:40:12.323Z,6.88
2019-02-17T22:44:19.450Z,6.80
2019-02-17T22:48:27.439Z,6.76
2019-02-17T22:52:34.395Z,6.71
2019-02-17T22:56:42.777Z,6.68
2019-02-17T23:01:01.041Z,6.68
2019-02-17T23:05:09.671Z,6.69
2019-02-17T23:09:16.819Z,6.67
2019-02-17T23:13:23.797Z,6.62
2019-02-17T23:17:31.228Z,6.56
2019-02-17T23:21:38.170Z,6.47
2019-02-17T23:25:50.320Z,6.43
2019-02-17T23:29:55.643Z,6.31
2019-02-17T23:34:03.253Z,6.03
2019-02-17T23:38:10.243Z,5.97
2019-02-17T23:42:17.209Z,5.99
2019-02-17T23:46:24.125Z,5.96
2019-02-17T23:50:30.988Z,5.92
2019-02-17T23:54:37.804Z,5.79
2019-02-17T23:58:44.635Z,5.60
